ADDS TAF Board (Experimental) INFO Settings
IDs: Format: Expanded Condensed

KCLT - Charlotte/Douglas In, NC, US

Issued at 2337 UTC 25 May 2016
Updated at: 0438 UTC 26 May 2016
Time0352Z 26/05Z 26/06Z 26/07Z 26/08Z 26/09Z 26/10Z 26/11Z 26/12Z 26/13Z 26/14Z 26/15Z 26/16Z 26/17Z
Type OBS PRVL PRVL PRVL PRVL PRVL PRVL PRVL PRVL PRVL PRVL PRVL PRVL PRVL
VIS 10 >6 >6 >6 >6 >6 >6 >6 >6 >6 >6 >6 >6 >6
CIG -- -- -- -- -- -- -- -- -- -- -- -- -- --
Cover CLR SCT SCT SCT SCT SCT SCT SCT SCT SCT SCT SCT SCT SCT
FltCat VFR VFR VFR VFR VFR VFR VFR VFR VFR VFR VFR VFR VFR VFR
WX -- -- -- -- -- -- -- -- -- -- -- -- -- --
WDir 200 210 210 190 190 190 190 190 190 190 190 190 230 230
WSpd 3 5 5 3 3 3 3 3 3 3 3 3 6 6
WGst -- -- -- -- -- -- -- -- -- -- -- -- -- --
R05/23
XWnd -1 -2 -2 -2 -2 -2 -2 -2 -2 -2 -2 -2 0 0
HWnd -3 -5 -5 -2 -2 -2 -2 -2 -2 -2 -2 -2 -6 -6
R18/36
XWnd -1 -3 -3 -1 -1 -1 -1 -1 -1 -1 -1 -1 -5 -5
HWnd 3 4 4 3 3 3 3 3 3 3 3 3 4 4

NOTE: TEMPO conditions in [brackets]. Keep in mind TEMPO conditions might be better (lower impact) than prevailing conditions.

Raw TAF
KCLT 252337Z 2600/2624 21005KT P6SM FEW070 SCT250
  FM260700 19003KT P6SM SCT080
  FM261600 23006KT P6SM SCT060
  PROB30 2621/2624 5SM TSRA BKN040CB


Raw METAR
KCLT 260352Z 20003KT 10SM CLR 22/14 A3019 RMK AO2 SLP214 T02170144
KCLT 260252Z 20004KT 10SM CLR 22/15 A3019 RMK AO2 SLP216 T02170150 53008
KCLT 260152Z 22003KT 10SM FEW250 23/14 A3019 RMK AO2 SLP215 T02330144

METAR Board
Radar Display
Forecast Discussion

TAF Board Legend

Potential Impact
Threat None Slight Moderate High
Visibility (sm) ≥5.1 5.1>X≥3 3>X≥1 <1
Ceiling (100 ft) ≥30.1 30.1>X≥10 10>X≥5 <5
Wind Speed (kt) <10 10≤X<20 20≤X<30 ≥30
Wind Gust (kt) <15 15≤X<25 25≤X<35 ≥35
Weather No Wx Reported VCTS,-TS,-FZRA,SN TS,FZRA +TS,+FZRA,+SN